< < Back
Terminal Aerodrome Forecast


Current Version              Previous Versions:   1  2  3  4  5  6  7  8  9  

Terminal Aerodrome Forecast

767
FTUS42 KJAX 212300 RRA
TAFGNV
TAF
KGNV 212344Z 2200/2224 08004KT 5SM BR VCSH OVC004
     FM220400 VRB03KT 2SM SHRA BR OVC002
      TEMPO 2208/2212 1/2SM RA FG
     FM221400 VRB04KT 4SM -RA BR OVC004
     FM221800 18007KT P6SM VCSH OVC015=



Latest METAR

716
SAUS70 KWBC 220500 RRK
MTRGNV
METAR KGNV 220453Z AUTO 12007KT 2 1/2SM -RA BR BKN002 OVC009 16/16 A3003
RMK AO2 SLP168 P0018 T01610156 401780139


USA.gov is the U.S. government's official web portal to all federal, state and local government web resources and services.